createdAt,value
2019-06-07T00:00:38.205Z,16.70
2019-06-07T00:03:00.114Z,16.70
2019-06-07T00:05:30.911Z,16.70
2019-06-07T00:08:07.624Z,16.70
2019-06-07T00:10:37.053Z,16.70
2019-06-07T00:13:07.251Z,16.70
2019-06-07T00:15:38.084Z,16.60
2019-06-07T00:18:12.260Z,16.50
2019-06-07T00:20:41.539Z,16.60
2019-06-07T00:23:14.930Z,16.60
2019-06-07T00:25:44.824Z,16.70
2019-06-07T00:28:17.293Z,16.80
2019-06-07T00:30:52.207Z,16.80
2019-06-07T00:33:24.109Z,16.90
2019-06-07T00:35:52.860Z,16.90
2019-06-07T00:38:23.642Z,16.70
2019-06-07T00:40:54.509Z,16.80
2019-06-07T00:43:28.224Z,16.90
2019-06-07T00:45:58.029Z,17.00
2019-06-07T00:48:32.773Z,17.00
2019-06-07T00:51:01.668Z,17.00
2019-06-07T00:53:32.790Z,17.00
2019-06-07T00:56:03.868Z,17.10
2019-06-07T00:58:34.843Z,17.00
2019-06-07T01:01:05.943Z,17.00
2019-06-07T01:03:36.829Z,17.00
2019-06-07T01:06:07.713Z,16.90
2019-06-07T01:08:38.518Z,16.90
2019-06-07T01:11:09.379Z,17.00
2019-06-07T01:13:40.449Z,16.90
2019-06-07T01:16:11.334Z,16.90
2019-06-07T01:18:46.543Z,16.90
2019-06-07T01:21:15.820Z,16.90
2019-06-07T01:24:08.910Z,16.90
2019-06-07T01:26:21.938Z,16.90
2019-06-07T01:28:52.048Z,16.80
2019-06-07T01:31:25.335Z,16.90
2019-06-07T01:33:55.449Z,16.90
2019-06-07T01:36:29.483Z,16.90
2019-06-07T01:39:00.628Z,16.80
2019-06-07T01:41:31.551Z,16.80
2019-06-07T01:44:02.346Z,16.70
2019-06-07T01:46:33.320Z,16.60
2019-06-07T01:49:04.149Z,16.60
2019-06-07T01:51:35.578Z,16.50
2019-06-07T01:54:49.564Z,16.50
2019-06-07T01:56:38.928Z,16.50
2019-06-07T01:59:09.838Z,16.50
2019-06-07T02:01:40.829Z,16.50
2019-06-07T02:04:11.688Z,16.40
2019-06-07T02:06:42.498Z,16.50
2019-06-07T02:09:13.284Z,16.50
2019-06-07T02:11:44.149Z,16.50
2019-06-07T02:14:14.985Z,16.30
2019-06-07T02:16:45.895Z,16.30
2019-06-07T02:19:16.783Z,16.20
2019-06-07T02:21:47.614Z,16.10
2019-06-07T02:24:18.508Z,16.10
2019-06-07T02:26:49.350Z,16.00
2019-06-07T02:29:20.493Z,16.10
2019-06-07T02:31:51.490Z,16.20
2019-06-07T02:34:24.107Z,16.30
2019-06-07T02:36:54.637Z,16.20
2019-06-07T02:39:28.207Z,16.30
2019-06-07T02:41:57.994Z,16.20
2019-06-07T02:44:34.922Z,16.10
2019-06-07T02:47:01.185Z,16.10
2019-06-07T02:49:39.660Z,16.00
2019-06-07T02:52:04.751Z,16.10
2019-06-07T02:54:39.615Z,16.10
2019-06-07T02:57:07.998Z,16.10
2019-06-07T03:00:04.457Z,16.00
2019-06-07T03:02:11.794Z,16.00
2019-06-07T03:04:44.879Z,16.00
2019-06-07T03:07:15.893Z,15.90
2019-06-07T03:09:47.510Z,15.90
2019-06-07T03:12:20.708Z,15.90
2019-06-07T03:14:53.568Z,15.90
2019-06-07T03:17:56.033Z,15.90
2019-06-07T03:20:29.546Z,15.90
2019-06-07T03:23:02.990Z,15.90
2019-06-07T03:25:39.211Z,15.80
2019-06-07T03:28:10.178Z,15.60
2019-06-07T03:30:58.151Z,15.60
2019-06-07T03:33:13.540Z,15.60
2019-06-07T03:35:44.519Z,15.50
2019-06-07T03:38:15.344Z,15.50
2019-06-07T03:40:46.293Z,15.50
2019-06-07T03:43:17.209Z,15.40
2019-06-07T03:45:47.918Z,15.40
2019-06-07T03:48:18.951Z,15.50
2019-06-07T03:51:03.867Z,15.40
2019-06-07T03:53:22.309Z,15.40
2019-06-07T03:55:53.197Z,15.40
2019-06-07T03:58:34.667Z,15.40
2019-06-07T04:00:58.723Z,15.40
2019-06-07T04:03:36.193Z,15.50
2019-06-07T04:06:01.689Z,15.50
2019-06-07T04:08:34.427Z,15.50
2019-06-07T04:11:05.519Z,15.50
2019-06-07T04:13:41.508Z,15.50
2019-06-07T04:16:09.379Z,15.50
2019-06-07T04:18:41.967Z,15.50
2019-06-07T04:21:13.083Z,15.60
2019-06-07T04:23:45.640Z,15.70
2019-06-07T04:26:16.445Z,15.70
2019-06-07T04:29:31.745Z,15.70
2019-06-07T04:31:19.885Z,15.70
2019-06-07T04:33:51.169Z,15.70
2019-06-07T04:36:39.217Z,15.70
2019-06-07T04:38:56.998Z,15.80
2019-06-07T04:41:30.919Z,15.80
2019-06-07T04:44:03.389Z,15.90
2019-06-07T04:46:38.973Z,16.00
2019-06-07T04:49:06.970Z,16.00
2019-06-07T04:51:42.095Z,16.10
2019-06-07T04:54:10.789Z,16.10
2019-06-07T04:56:44.448Z,16.00
2019-06-07T04:59:59.774Z,16.00
2019-06-07T05:01:47.164Z,15.90
2019-06-07T05:04:18.173Z,16.00
2019-06-07T05:06:49.069Z,16.00
2019-06-07T05:09:20.034Z,16.10
2019-06-07T05:11:50.839Z,16.10
2019-06-07T05:14:21.745Z,16.20
2019-06-07T05:16:52.524Z,16.40
2019-06-07T05:19:23.356Z,16.40
2019-06-07T05:22:04.145Z,16.50
2019-06-07T05:24:27.120Z,16.60
2019-06-07T05:26:58.020Z,16.70
2019-06-07T05:29:30.783Z,16.90
2019-06-07T05:32:02.003Z,17.00
2019-06-07T05:34:34.582Z,17.20
2019-06-07T05:37:11.810Z,17.30
2019-06-07T05:39:41.995Z,17.40
2019-06-07T05:42:10.480Z,17.60
2019-06-07T05:44:45.162Z,17.70
2019-06-07T05:47:13.924Z,17.70
2019-06-07T05:49:47.164Z,17.90
2019-06-07T05:52:17.578Z,18.00
2019-06-07T05:54:48.490Z,18.00
2019-06-07T05:57:19.520Z,18.10
2019-06-07T05:59:50.658Z,18.20
2019-06-07T06:02:24.563Z,18.20
2019-06-07T06:04:53.934Z,18.20
2019-06-07T06:07:25.034Z,18.40
2019-06-07T06:09:55.895Z,18.30
2019-06-07T06:12:35.201Z,18.50
2019-06-07T06:14:59.240Z,18.60
2019-06-07T06:17:30.091Z,18.70
2019-06-07T06:20:01.014Z,18.60
2019-06-07T06:22:31.989Z,18.60
2019-06-07T06:25:30.988Z,18.70
2019-06-07T06:28:05.971Z,18.80
2019-06-07T06:30:09.683Z,18.70
2019-06-07T06:32:46.741Z,18.70
2019-06-07T06:35:13.100Z,18.90
2019-06-07T06:37:48.846Z,18.90
2019-06-07T06:40:17.030Z,18.90
2019-06-07T06:42:49.031Z,19.00
2019-06-07T06:45:20.966Z,19.00
2019-06-07T06:47:51.856Z,19.10
2019-06-07T06:50:23.219Z,19.10
2019-06-07T06:52:54.855Z,19.10
2019-06-07T06:55:27.105Z,19.30
2019-06-07T06:57:57.908Z,19.70
2019-06-07T07:01:01.959Z,19.50
2019-06-07T07:03:54.199Z,19.40
2019-06-07T07:05:55.134Z,19.30
2019-06-07T07:08:26.343Z,19.60
2019-06-07T07:10:57.428Z,19.80
2019-06-07T07:13:28.288Z,20.00
2019-06-07T07:15:59.323Z,19.90
2019-06-07T07:18:30.119Z,19.90
2019-06-07T07:21:00.980Z,20.10
2019-06-07T07:23:32.110Z,20.20
2019-06-07T07:26:03.008Z,20.20
2019-06-07T07:28:34.239Z,20.20
2019-06-07T07:31:05.513Z,20.40
2019-06-07T07:36:23.290Z,20.60
2019-06-07T07:38:41.369Z,20.80
2019-06-07T07:41:15.530Z,20.70
2019-06-07T07:43:51.839Z,20.80
2019-06-07T07:46:29.075Z,20.80
2019-06-07T07:49:08.783Z,20.80
2019-06-07T07:51:39.729Z,20.80
2019-06-07T07:54:11.392Z,20.90
2019-06-07T07:56:42.580Z,20.90
2019-06-07T07:59:13.474Z,21.20
2019-06-07T08:01:46.109Z,21.30
2019-06-07T08:04:17.482Z,21.50
2019-06-07T08:06:48.964Z,21.60
2019-06-07T08:09:20.589Z,21.60
2019-06-07T08:11:52.929Z,21.70
2019-06-07T08:14:24.010Z,22.10
2019-06-07T08:16:57.897Z,21.90
2019-06-07T08:19:27.684Z,21.80
2019-06-07T08:22:01.676Z,21.60
2019-06-07T08:24:31.154Z,21.60
2019-06-07T08:27:24.773Z,21.90
2019-06-07T08:29:45.035Z,22.20
2019-06-07T08:32:07.294Z,22.10
2019-06-07T08:34:38.475Z,22.10
2019-06-07T08:37:09.573Z,22.40
2019-06-07T08:39:40.581Z,22.50
2019-06-07T08:42:17.917Z,22.80
2019-06-07T08:44:43.924Z,22.90
2019-06-07T08:47:20.462Z,22.70
2019-06-07T08:49:47.554Z,22.90
2019-06-07T08:52:18.561Z,23.10
2019-06-07T08:54:50.476Z,23.10
2019-06-07T08:57:22.314Z,22.80
2019-06-07T08:59:55.706Z,23.00
2019-06-07T09:02:26.082Z,23.30
2019-06-07T09:05:00.001Z,23.30
2019-06-07T09:07:29.604Z,23.10
2019-06-07T09:10:08.273Z,23.30
2019-06-07T09:12:32.927Z,23.60
2019-06-07T09:15:17.849Z,23.50
2019-06-07T09:17:36.319Z,23.30
2019-06-07T09:20:32.696Z,23.10
2019-06-07T09:22:40.684Z,23.10
2019-06-07T09:25:20.769Z,23.10
2019-06-07T09:27:45.199Z,23.20
2019-06-07T09:30:18.931Z,23.30
2019-06-07T09:32:49.748Z,23.40
2019-06-07T09:35:20.914Z,23.30
2019-06-07T09:38:07.808Z,23.30
2019-06-07T09:40:31.218Z,23.30
2019-06-07T09:43:47.583Z,23.00
2019-06-07T09:45:34.434Z,23.10
2019-06-07T09:48:12.416Z,23.30
2019-06-07T09:50:37.791Z,23.60
2019-06-07T09:53:21.076Z,23.90
2019-06-07T09:55:41.495Z,24.00
2019-06-07T10:00:45.247Z,24.00
2019-06-07T10:03:21.935Z,23.70
2019-06-07T10:05:49.646Z,23.50
2019-06-07T10:09:26.267Z,23.40
2019-06-07T10:10:52.983Z,23.40
2019-06-07T10:13:23.654Z,23.60
2019-06-07T10:15:54.335Z,23.60
2019-06-07T10:18:25.029Z,23.70
2019-06-07T10:20:55.719Z,23.90
2019-06-07T10:23:26.454Z,23.90
2019-06-07T10:25:57.057Z,23.90
2019-06-07T10:28:27.845Z,24.10
2019-06-07T10:31:00.020Z,24.00
2019-06-07T10:33:30.791Z,24.10
2019-06-07T10:36:02.482Z,24.30
2019-06-07T10:38:33.304Z,24.30
2019-06-07T10:41:04.754Z,24.20
2019-06-07T10:43:35.683Z,24.20
2019-06-07T10:46:07.649Z,24.20
2019-06-07T10:48:38.744Z,24.10
2019-06-07T10:51:13.684Z,24.60
2019-06-07T10:53:42.343Z,25.10
2019-06-07T10:56:13.453Z,25.20
2019-06-07T10:58:44.545Z,25.40
2019-06-07T11:01:15.899Z,25.50
2019-06-07T11:03:46.699Z,25.60
2019-06-07T11:06:17.663Z,25.90
2019-06-07T11:08:48.349Z,25.80
2019-06-07T11:11:19.184Z,25.30
2019-06-07T11:13:52.438Z,25.40
2019-06-07T11:16:22.504Z,25.30
2019-06-07T11:18:53.383Z,25.20
2019-06-07T11:21:24.093Z,25.40
2019-06-07T11:23:54.924Z,25.60
2019-06-07T11:26:25.830Z,25.80
2019-06-07T11:28:57.159Z,25.70
2019-06-07T11:31:27.930Z,25.70
2019-06-07T11:33:58.948Z,25.60
2019-06-07T11:36:29.880Z,25.90
2019-06-07T11:39:00.753Z,26.20
2019-06-07T11:41:31.825Z,25.60
2019-06-07T11:44:02.723Z,25.60
2019-06-07T11:46:33.638Z,25.80
2019-06-07T11:49:04.564Z,25.80
2019-06-07T11:51:35.454Z,26.00
2019-06-07T11:54:07.786Z,25.80
2019-06-07T11:56:38.869Z,25.90
2019-06-07T11:59:11.090Z,26.10
2019-06-07T12:01:42.219Z,26.30
2019-06-07T12:04:14.019Z,27.20
2019-06-07T12:06:45.464Z,27.30
2019-06-07T12:09:16.851Z,27.70
2019-06-07T12:11:47.719Z,27.60
2019-06-07T12:14:19.349Z,27.50
2019-06-07T12:16:50.352Z,27.80
2019-06-07T12:19:21.219Z,28.30
2019-06-07T12:21:52.216Z,28.10
2019-06-07T12:24:23.133Z,27.80
2019-06-07T12:26:54.075Z,28.10
2019-06-07T12:29:25.219Z,28.30
2019-06-07T12:31:56.084Z,28.60
2019-06-07T12:34:27.009Z,28.60
2019-06-07T12:36:58.064Z,28.70
2019-06-07T12:39:29.206Z,28.40
2019-06-07T12:41:59.982Z,28.00
2019-06-07T12:44:31.149Z,28.20
2019-06-07T12:47:02.048Z,28.10
2019-06-07T12:49:32.894Z,28.80
2019-06-07T12:52:03.785Z,29.00
2019-06-07T12:54:34.905Z,28.00
2019-06-07T12:57:06.009Z,26.80
2019-06-07T12:59:36.929Z,26.20
2019-06-07T13:02:07.743Z,27.00
2019-06-07T13:04:38.548Z,28.10
2019-06-07T13:07:09.614Z,28.80
2019-06-07T13:09:40.424Z,27.40
2019-06-07T13:12:11.229Z,27.90
2019-06-07T13:14:42.024Z,28.30
2019-06-07T13:17:12.909Z,28.20
2019-06-07T13:19:43.842Z,28.70
2019-06-07T13:22:16.130Z,28.80
2019-06-07T13:24:47.169Z,29.80
2019-06-07T13:27:18.350Z,29.10
2019-06-07T13:29:49.397Z,28.00
2019-06-07T13:32:21.465Z,27.20
2019-06-07T13:34:52.624Z,27.40
2019-06-07T13:37:23.528Z,27.90
2019-06-07T13:39:54.560Z,28.00
2019-06-07T13:42:25.765Z,27.70
2019-06-07T13:44:56.554Z,27.50
2019-06-07T13:47:27.659Z,27.70
2019-06-07T13:49:58.641Z,27.90
2019-06-07T13:52:29.629Z,27.60
2019-06-07T13:55:02.370Z,27.90
2019-06-07T13:57:33.182Z,27.90
2019-06-07T14:00:10.286Z,28.10
2019-06-07T14:02:37.520Z,27.90
2019-06-07T14:05:09.658Z,27.40
2019-06-07T14:07:40.637Z,27.20
2019-06-07T14:10:12.174Z,27.40
2019-06-07T14:12:43.010Z,27.50
2019-06-07T14:15:15.596Z,27.50
2019-06-07T14:17:46.359Z,27.60
2019-06-07T14:20:17.542Z,28.00
2019-06-07T14:22:50.072Z,28.10
2019-06-07T14:25:21.012Z,28.30
2019-06-07T14:27:51.888Z,28.00
2019-06-07T14:30:23.919Z,27.60
2019-06-07T14:32:55.115Z,27.30
2019-06-07T14:35:26.701Z,27.40
2019-06-07T14:37:57.683Z,27.40
2019-06-07T14:40:30.036Z,27.40
2019-06-07T14:43:01.298Z,27.60
2019-06-07T14:45:32.761Z,27.40
2019-06-07T14:48:04.679Z,27.40
2019-06-07T14:50:35.534Z,28.20
2019-06-07T14:53:06.979Z,28.50
2019-06-07T14:55:37.900Z,28.10
2019-06-07T14:58:08.749Z,28.10
2019-06-07T15:00:45.416Z,28.30
2019-06-07T15:03:16.409Z,28.80
2019-06-07T15:05:47.169Z,28.90
2019-06-07T15:08:18.278Z,28.60
2019-06-07T15:10:49.469Z,28.50
2019-06-07T15:13:20.318Z,28.50
2019-06-07T15:15:51.219Z,28.40
2019-06-07T15:18:21.901Z,28.40
2019-06-07T15:20:52.594Z,28.20
2019-06-07T15:23:23.429Z,27.70
2019-06-07T15:25:54.199Z,27.60
2019-06-07T15:28:25.169Z,27.60
2019-06-07T15:30:56.034Z,27.80
2019-06-07T15:33:27.880Z,27.80
2019-06-07T15:35:58.689Z,27.80
2019-06-07T15:38:30.952Z,27.80
2019-06-07T15:41:01.723Z,27.80
2019-06-07T15:43:33.153Z,27.80
2019-06-07T15:46:03.889Z,27.90
2019-06-07T15:48:35.712Z,27.80
2019-06-07T15:51:06.769Z,27.60
2019-06-07T15:53:42.654Z,27.60
2019-06-07T15:56:10.039Z,27.50
2019-06-07T15:58:41.356Z,27.00
2019-06-07T16:01:12.385Z,26.70
2019-06-07T16:03:43.224Z,26.60
2019-06-07T16:06:14.259Z,26.70
2019-06-07T16:08:45.046Z,26.60
2019-06-07T16:11:16.005Z,26.60
2019-06-07T16:13:47.269Z,26.40
2019-06-07T16:16:18.144Z,26.40
2019-06-07T16:18:49.165Z,25.90
2019-06-07T16:21:20.309Z,26.00
2019-06-07T16:23:51.064Z,26.00
2019-06-07T16:26:21.849Z,25.90
2019-06-07T16:28:52.666Z,25.70
2019-06-07T16:31:23.439Z,25.70
2019-06-07T16:33:54.299Z,25.70
2019-06-07T16:36:25.279Z,25.70
2019-06-07T16:38:56.065Z,25.60
2019-06-07T16:41:26.884Z,25.60
2019-06-07T16:43:57.954Z,25.50
2019-06-07T16:46:28.684Z,25.40
2019-06-07T16:48:59.446Z,25.40
2019-06-07T16:51:30.524Z,25.30
2019-06-07T16:54:01.408Z,25.30
2019-06-07T16:56:32.430Z,25.30
2019-06-07T16:59:03.300Z,25.30
2019-06-07T17:01:34.174Z,25.30
2019-06-07T17:04:05.420Z,25.30
2019-06-07T17:06:37.508Z,25.30
2019-06-07T17:09:09.414Z,25.20
2019-06-07T17:11:40.644Z,25.20
2019-06-07T17:14:11.724Z,25.10
2019-06-07T17:16:43.201Z,24.90
2019-06-07T17:19:14.479Z,24.90
2019-06-07T17:21:45.395Z,24.90
2019-06-07T17:24:16.389Z,24.60
2019-06-07T17:26:47.827Z,24.60
2019-06-07T17:29:18.859Z,24.70
2019-06-07T17:31:50.386Z,24.70
2019-06-07T17:34:21.609Z,24.70
2019-06-07T17:36:52.524Z,24.70
2019-06-07T17:39:23.524Z,24.70
2019-06-07T17:42:01.741Z,24.70
2019-06-07T17:44:26.924Z,24.60
2019-06-07T17:46:57.738Z,24.30
2019-06-07T17:49:28.493Z,24.30
2019-06-07T17:51:59.303Z,24.20
2019-06-07T17:54:30.159Z,24.20
2019-06-07T17:57:01.209Z,24.20
2019-06-07T17:59:32.424Z,24.20
2019-06-07T18:02:14.404Z,24.20
2019-06-07T18:04:36.384Z,24.20
2019-06-07T18:07:08.258Z,24.20
2019-06-07T18:09:40.425Z,24.20
2019-06-07T18:12:11.326Z,24.20
2019-06-07T18:14:42.260Z,24.20
2019-06-07T18:17:13.435Z,24.10
2019-06-07T18:19:45.270Z,24.00
2019-06-07T18:22:16.298Z,24.00
2019-06-07T18:24:48.432Z,23.90
2019-06-07T18:27:19.359Z,23.80
2019-06-07T18:29:50.558Z,23.80
2019-06-07T18:32:21.639Z,23.70
2019-06-07T18:34:52.963Z,23.60
2019-06-07T18:37:23.779Z,23.60
2019-06-07T18:39:55.277Z,23.70
2019-06-07T18:42:26.269Z,23.70
2019-06-07T18:44:57.143Z,23.70
2019-06-07T18:47:28.303Z,23.70
2019-06-07T18:49:59.484Z,23.70
2019-06-07T18:52:34.030Z,23.70
2019-06-07T18:55:05.083Z,23.70
2019-06-07T18:57:36.003Z,23.60
2019-06-07T19:00:08.679Z,23.60
2019-06-07T19:02:39.569Z,23.60
2019-06-07T19:05:11.080Z,23.50
2019-06-07T19:07:42.413Z,23.50
2019-06-07T19:10:15.394Z,23.40
2019-06-07T19:12:46.410Z,23.40
2019-06-07T19:15:18.349Z,23.40
2019-06-07T19:17:49.734Z,23.40
2019-06-07T19:20:21.765Z,23.30
2019-06-07T19:22:54.125Z,23.30
2019-06-07T19:25:25.622Z,23.30
2019-06-07T19:27:57.009Z,23.20
2019-06-07T19:30:29.549Z,23.30
2019-06-07T19:33:01.515Z,23.20
2019-06-07T19:35:32.924Z,23.20
2019-06-07T19:38:04.234Z,23.10
2019-06-07T19:40:35.459Z,23.10
2019-06-07T19:43:06.569Z,23.00
2019-06-07T19:45:37.740Z,23.00
2019-06-07T19:48:08.809Z,23.00
2019-06-07T19:50:39.724Z,23.00
2019-06-07T19:53:10.622Z,22.90
2019-06-07T19:55:41.559Z,22.90
2019-06-07T19:58:12.469Z,22.80
2019-06-07T20:00:43.764Z,22.80
2019-06-07T20:03:14.609Z,22.80
2019-06-07T20:05:45.540Z,22.80
2019-06-07T20:08:16.664Z,22.70
2019-06-07T20:10:48.046Z,22.60
2019-06-07T20:13:19.272Z,22.60
2019-06-07T20:15:50.644Z,22.60
2019-06-07T20:18:21.478Z,22.60
2019-06-07T20:20:52.483Z,22.50
2019-06-07T20:23:23.459Z,22.50
2019-06-07T20:25:54.374Z,22.50
2019-06-07T20:28:25.484Z,22.60
2019-06-07T20:30:57.645Z,22.50
2019-06-07T20:33:28.759Z,22.60
2019-06-07T20:36:00.717Z,22.60
2019-06-07T20:38:32.252Z,22.40
2019-06-07T20:41:03.364Z,22.40
2019-06-07T20:43:34.293Z,22.40
2019-06-07T20:46:06.602Z,22.40
2019-06-07T20:48:37.854Z,22.40
2019-06-07T20:51:08.828Z,22.30
2019-06-07T20:53:39.454Z,22.30
2019-06-07T20:56:10.142Z,22.20
2019-06-07T20:58:41.224Z,22.30
2019-06-07T21:01:12.530Z,22.30
2019-06-07T21:03:43.264Z,22.30
2019-06-07T21:06:14.501Z,22.30
2019-06-07T21:08:45.314Z,22.40
2019-06-07T21:11:16.483Z,22.40
2019-06-07T21:13:47.679Z,22.30
2019-06-07T21:16:18.464Z,22.30
2019-06-07T21:18:49.333Z,22.30
2019-06-07T21:21:20.554Z,22.30
2019-06-07T21:23:51.508Z,22.30
2019-06-07T21:26:22.599Z,22.40
2019-06-07T21:28:53.774Z,22.40
2019-06-07T21:31:24.834Z,22.40
2019-06-07T21:33:55.730Z,22.40
2019-06-07T21:36:26.869Z,22.50
2019-06-07T21:38:57.783Z,22.50
2019-06-07T21:41:28.769Z,22.50
2019-06-07T21:43:59.624Z,22.50
2019-06-07T21:46:30.574Z,22.40
2019-06-07T21:49:02.208Z,22.50
2019-06-07T21:51:33.404Z,22.50
2019-06-07T21:54:06.762Z,22.40
2019-06-07T21:56:36.664Z,22.40
2019-06-07T21:59:07.655Z,22.40
2019-06-07T22:01:38.835Z,22.30
2019-06-07T22:04:09.713Z,22.30
2019-06-07T22:06:40.764Z,22.20
2019-06-07T22:09:12.401Z,22.20
2019-06-07T22:11:43.407Z,22.20
2019-06-07T22:14:14.570Z,22.20
2019-06-07T22:16:45.519Z,22.10
2019-06-07T22:19:16.269Z,22.00
2019-06-07T22:22:01.768Z,22.00
2019-06-07T22:24:19.444Z,22.00
2019-06-07T22:26:50.260Z,21.90
2019-06-07T22:29:21.270Z,21.90
2019-06-07T22:31:52.046Z,21.90
2019-06-07T22:34:23.135Z,21.90
2019-06-07T22:36:54.303Z,21.80
2019-06-07T22:39:25.120Z,21.70
2019-06-07T22:41:56.037Z,21.50
2019-06-07T22:44:27.489Z,21.40
2019-06-07T22:46:58.373Z,21.30
2019-06-07T22:49:29.251Z,21.20
2019-06-07T22:52:08.739Z,21.20
2019-06-07T22:54:32.754Z,21.10
2019-06-07T22:57:10.082Z,21.10
2019-06-07T22:59:41.084Z,21.10
2019-06-07T23:02:12.632Z,21.00
2019-06-07T23:04:43.634Z,21.00
2019-06-07T23:07:14.973Z,21.00
2019-06-07T23:09:45.684Z,21.00
2019-06-07T23:12:17.528Z,21.00
2019-06-07T23:14:48.728Z,21.10
2019-06-07T23:17:20.748Z,21.10
2019-06-07T23:19:52.013Z,21.10
2019-06-07T23:22:23.136Z,21.10
2019-06-07T23:24:54.149Z,21.10
2019-06-07T23:27:25.063Z,21.00
2019-06-07T23:29:55.923Z,20.90
2019-06-07T23:32:26.749Z,20.90
2019-06-07T23:34:57.594Z,20.80
2019-06-07T23:37:28.468Z,20.80
2019-06-07T23:39:59.390Z,20.80
2019-06-07T23:42:30.258Z,20.70
2019-06-07T23:45:01.159Z,20.70
2019-06-07T23:47:32.130Z,20.70
2019-06-07T23:50:03.133Z,20.60
2019-06-07T23:52:34.079Z,20.60
2019-06-07T23:55:05.129Z,20.50
2019-06-07T23:57:36.793Z,20.50
